createdAt,value
2023-05-14T00:02:21.108Z,13.08
2023-05-14T00:04:47.708Z,13.08
2023-05-14T00:07:17.319Z,13.03
2023-05-14T00:09:43.905Z,13.33
2023-05-14T00:12:10.487Z,13.49
2023-05-14T00:14:37.082Z,13.51
2023-05-14T00:17:03.711Z,13.54
2023-05-14T00:19:30.370Z,13.10
2023-05-14T00:21:56.926Z,13.31
2023-05-14T00:24:23.744Z,13.26
2023-05-14T00:26:50.359Z,13.20
2023-05-14T00:29:17.024Z,13.05
2023-05-14T00:31:43.750Z,13.07
2023-05-14T00:34:12.714Z,12.86
2023-05-14T00:36:39.317Z,12.71
2023-05-14T00:39:05.985Z,12.23
2023-05-14T00:41:33.086Z,12.67
2023-05-14T00:43:59.723Z,12.01
2023-05-14T00:46:27.660Z,12.38
2023-05-14T00:48:54.301Z,12.57
2023-05-14T00:51:21.094Z,12.29
2023-05-14T00:53:48.287Z,12.35
2023-05-14T00:56:15.962Z,12.19
2023-05-14T00:58:42.592Z,12.39
2023-05-14T01:01:09.358Z,12.44
2023-05-14T01:03:36.164Z,12.51
2023-05-14T01:06:18.156Z,12.29
2023-05-14T01:08:59.618Z,11.97
2023-05-14T01:11:29.594Z,12.21
2023-05-14T01:14:07.515Z,12.30
2023-05-14T01:16:35.175Z,12.24
2023-05-14T01:19:06.791Z,11.98
2023-05-14T01:21:40.177Z,11.64
2023-05-14T01:24:07.672Z,11.54
2023-05-14T01:26:34.994Z,11.53
2023-05-14T01:29:22.009Z,11.58
2023-05-14T01:31:57.744Z,11.31
2023-05-14T01:34:26.292Z,11.62
2023-05-14T01:36:53.504Z,12.24
2023-05-14T01:39:20.656Z,12.18
2023-05-14T01:41:48.739Z,12.37
2023-05-14T01:44:15.528Z,12.27
2023-05-14T01:46:42.156Z,12.33
2023-05-14T01:49:11.825Z,12.52
2023-05-14T01:51:39.081Z,12.17
2023-05-14T01:54:05.900Z,11.96
2023-05-14T01:56:32.499Z,11.74
2023-05-14T01:58:59.102Z,11.25
2023-05-14T02:01:26.285Z,11.32
2023-05-14T02:03:57.152Z,11.52
2023-05-14T02:06:23.905Z,11.30
2023-05-14T02:08:50.666Z,11.03
2023-05-14T02:11:17.448Z,11.34
2023-05-14T02:13:44.178Z,11.51
2023-05-14T02:16:10.941Z,11.65
2023-05-14T02:18:43.678Z,11.10
2023-05-14T02:21:10.681Z,10.76
2023-05-14T02:23:41.552Z,10.95
2023-05-14T02:26:09.804Z,10.93
2023-05-14T02:28:36.478Z,11.30
2023-05-14T02:31:04.080Z,11.26
2023-05-14T02:33:30.850Z,11.54
2023-05-14T02:35:57.547Z,11.88
2023-05-14T02:38:24.161Z,11.27
2023-05-14T02:40:50.877Z,11.14
2023-05-14T02:43:17.421Z,10.89
2023-05-14T02:45:45.009Z,10.71
2023-05-14T02:48:14.684Z,10.91
2023-05-14T02:50:41.646Z,10.54
2023-05-14T02:53:08.766Z,10.66
2023-05-14T02:55:35.704Z,10.41
2023-05-14T02:58:02.397Z,10.59
2023-05-14T03:00:30.051Z,10.92
2023-05-14T03:05:40.380Z,11.03
2023-05-14T03:08:06.908Z,10.70
2023-05-14T03:10:33.480Z,10.54
2023-05-14T03:13:00.129Z,10.33
2023-05-14T03:15:26.708Z,10.32
2023-05-14T03:17:53.351Z,10.45
2023-05-14T03:20:20.564Z,10.77
2023-05-14T03:22:47.196Z,10.65
2023-05-14T03:25:14.075Z,10.31
2023-05-14T03:27:42.836Z,9.91
2023-05-14T03:30:09.701Z,9.93
2023-05-14T03:32:37.565Z,9.82
2023-05-14T03:35:04.476Z,9.84
2023-05-14T03:37:35.401Z,10.37
2023-05-14T03:40:01.996Z,10.71
2023-05-14T03:42:28.662Z,10.26
2023-05-14T03:44:55.282Z,10.07
2023-05-14T03:47:21.999Z,10.01
2023-05-14T03:49:48.867Z,10.03
2023-05-14T03:52:16.851Z,10.10
2023-05-14T03:54:44.580Z,10.43
2023-05-14T03:57:13.435Z,10.28
2023-05-14T03:59:40.762Z,10.27
2023-05-14T04:02:07.466Z,10.36
2023-05-14T04:04:41.612Z,10.46
2023-05-14T04:07:08.932Z,11.30
2023-05-14T04:09:35.630Z,11.53
2023-05-14T04:12:05.530Z,11.74
2023-05-14T04:14:33.714Z,11.85
2023-05-14T04:17:03.823Z,11.98
2023-05-14T04:19:30.457Z,11.94
2023-05-14T04:21:59.553Z,12.02
2023-05-14T04:24:26.232Z,11.96
2023-05-14T04:26:52.768Z,12.04
2023-05-14T04:29:19.381Z,12.05
2023-05-14T04:31:46.521Z,12.27
2023-05-14T04:34:13.192Z,12.30
2023-05-14T04:36:40.265Z,11.89
2023-05-14T04:39:10.031Z,11.80
2023-05-14T04:41:36.833Z,12.32
2023-05-14T04:44:04.254Z,12.57
2023-05-14T04:46:31.191Z,12.62
2023-05-14T04:48:57.812Z,12.68
2023-05-14T04:51:31.641Z,12.47
2023-05-14T04:53:58.412Z,12.93
2023-05-14T04:56:25.934Z,13.09
2023-05-14T04:58:52.525Z,13.13
2023-05-14T05:01:19.143Z,13.13
2023-05-14T05:03:45.952Z,13.40
2023-05-14T05:06:14.870Z,13.58
2023-05-14T05:08:41.629Z,13.43
2023-05-14T05:11:08.181Z,13.39
2023-05-14T05:13:36.900Z,13.58
2023-05-14T05:16:03.730Z,13.44
2023-05-14T05:18:30.330Z,13.46
2023-05-14T05:20:57.769Z,13.46
2023-05-14T05:23:24.355Z,13.68
2023-05-14T05:25:58.493Z,13.86
2023-05-14T05:28:28.131Z,13.73
2023-05-14T05:30:54.695Z,14.12
2023-05-14T05:33:21.365Z,13.99
2023-05-14T05:35:48.887Z,13.89
2023-05-14T05:38:18.371Z,14.06
2023-05-14T05:40:45.099Z,14.10
2023-05-14T05:43:13.914Z,14.36
2023-05-14T05:45:40.942Z,14.20
2023-05-14T05:48:07.817Z,14.28
2023-05-14T05:50:34.536Z,14.52
2023-05-14T05:53:01.171Z,14.40
2023-05-14T05:55:30.549Z,14.54
2023-05-14T05:57:57.267Z,14.69
2023-05-14T06:00:24.527Z,14.55
2023-05-14T06:02:52.888Z,14.86
2023-05-14T06:05:19.634Z,14.68
2023-05-14T06:07:46.302Z,15.16
2023-05-14T06:10:13.790Z,15.43
2023-05-14T06:12:40.583Z,15.68
2023-05-14T06:15:10.170Z,15.55
2023-05-14T06:17:36.792Z,15.50
2023-05-14T06:20:05.638Z,15.36
2023-05-14T06:22:32.293Z,15.53
2023-05-14T06:25:02.027Z,15.59
2023-05-14T06:27:30.999Z,15.89
2023-05-14T06:29:57.613Z,16.20
2023-05-14T06:32:24.375Z,16.18
2023-05-14T06:34:51.053Z,16.19
2023-05-14T06:37:20.242Z,15.93
2023-05-14T06:39:50.206Z,15.90
2023-05-14T06:42:17.180Z,16.20
2023-05-14T06:44:44.342Z,16.44
2023-05-14T06:47:10.982Z,16.19
2023-05-14T06:49:37.700Z,16.67
2023-05-14T06:52:04.775Z,16.87
2023-05-14T06:54:33.658Z,17.04
2023-05-14T06:57:00.391Z,17.16
2023-05-14T06:59:26.926Z,17.09
2023-05-14T07:01:56.111Z,17.42
2023-05-14T07:04:22.887Z,17.56
2023-05-14T07:06:49.632Z,17.66
2023-05-14T07:09:16.636Z,17.76
2023-05-14T07:11:43.507Z,17.88
2023-05-14T07:14:10.035Z,17.83
2023-05-14T07:16:36.995Z,17.92
2023-05-14T07:19:03.670Z,17.97
2023-05-14T07:21:30.391Z,18.15
2023-05-14T07:23:56.943Z,17.91
2023-05-14T07:26:24.590Z,17.95
2023-05-14T07:28:51.231Z,18.10
2023-05-14T07:31:24.011Z,18.18
2023-05-14T07:33:53.466Z,18.23
2023-05-14T07:36:20.047Z,18.35
2023-05-14T07:38:46.695Z,18.46
2023-05-14T07:41:13.671Z,18.50
2023-05-14T07:43:40.622Z,18.65
2023-05-14T07:46:07.175Z,18.82
2023-05-14T07:48:33.812Z,18.86
2023-05-14T07:51:00.471Z,19.12
2023-05-14T07:53:27.020Z,19.17
2023-05-14T07:55:54.610Z,19.39
2023-05-14T07:58:21.245Z,19.36
2023-05-14T08:00:47.843Z,19.28
2023-05-14T08:03:15.107Z,19.12
2023-05-14T08:05:41.815Z,19.27
2023-05-14T08:08:12.505Z,19.54
2023-05-14T08:10:41.575Z,19.57
2023-05-14T08:13:08.147Z,19.84
2023-05-14T08:15:34.829Z,20.16
2023-05-14T08:18:03.797Z,20.33
2023-05-14T08:20:31.165Z,20.34
2023-05-14T08:23:01.517Z,20.57
2023-05-14T08:25:28.173Z,20.45
2023-05-14T08:27:54.861Z,20.35
2023-05-14T08:30:22.764Z,20.67
2023-05-14T08:32:49.657Z,20.87
2023-05-14T08:35:16.812Z,21.00
2023-05-14T08:37:43.638Z,21.17
2023-05-14T08:40:10.681Z,20.88
2023-05-14T08:42:40.540Z,21.20
2023-05-14T08:45:11.988Z,21.03
2023-05-14T08:47:38.791Z,21.26
2023-05-14T08:50:06.536Z,21.19
2023-05-14T08:52:33.683Z,21.30
2023-05-14T08:55:04.844Z,21.36
2023-05-14T08:57:32.477Z,21.46
2023-05-14T08:59:59.051Z,21.60
2023-05-14T09:02:28.738Z,21.79
2023-05-14T09:04:56.663Z,21.98
2023-05-14T09:07:23.916Z,22.03
2023-05-14T09:09:51.390Z,21.69
2023-05-14T09:12:18.131Z,21.71
2023-05-14T09:14:45.377Z,21.81
2023-05-14T09:17:12.722Z,21.74
2023-05-14T09:19:40.475Z,21.70
2023-05-14T09:22:12.036Z,21.88
2023-05-14T09:24:39.061Z,21.87
2023-05-14T09:27:06.616Z,21.81
2023-05-14T09:29:33.942Z,21.70
2023-05-14T09:32:04.834Z,21.53
2023-05-14T09:34:32.586Z,21.69
2023-05-14T09:37:06.511Z,21.69
2023-05-14T09:39:33.752Z,22.06
2023-05-14T09:42:00.566Z,22.13
2023-05-14T09:44:27.497Z,22.53
2023-05-14T09:46:56.976Z,22.52
2023-05-14T09:49:25.503Z,22.77
2023-05-14T09:51:52.064Z,22.69
2023-05-14T09:54:18.733Z,23.06
2023-05-14T09:56:47.506Z,23.11
2023-05-14T09:59:14.281Z,23.14
2023-05-14T10:01:42.477Z,23.34
2023-05-14T10:04:09.988Z,23.35
2023-05-14T10:06:37.365Z,23.66
2023-05-14T10:09:05.742Z,23.89
2023-05-14T10:11:36.763Z,24.02
2023-05-14T10:14:07.506Z,24.42
2023-05-14T10:16:35.492Z,24.36
2023-05-14T10:19:06.517Z,24.43
2023-05-14T10:21:35.044Z,24.32
2023-05-14T10:24:02.133Z,24.34
2023-05-14T10:26:28.888Z,23.91
2023-05-14T10:28:56.255Z,23.82
2023-05-14T10:31:23.455Z,23.28
2023-05-14T10:33:50.879Z,23.06
2023-05-14T10:36:18.432Z,23.16
2023-05-14T10:38:44.986Z,22.79
2023-05-14T10:41:25.996Z,22.74
2023-05-14T10:43:52.575Z,22.36
2023-05-14T10:46:19.154Z,22.45
2023-05-14T10:48:47.264Z,22.46
2023-05-14T10:51:16.847Z,22.25
2023-05-14T10:53:44.007Z,22.21
2023-05-14T10:56:14.464Z,22.27
2023-05-14T10:58:44.843Z,22.32
2023-05-14T11:01:12.445Z,22.45
2023-05-14T11:03:46.361Z,23.03
2023-05-14T11:06:13.938Z,23.74
2023-05-14T11:08:41.022Z,24.50
2023-05-14T11:11:08.988Z,24.82
2023-05-14T11:13:35.586Z,25.06
2023-05-14T11:16:21.110Z,25.04
2023-05-14T11:18:53.517Z,26.13
2023-05-14T11:21:20.272Z,26.49
2023-05-14T11:23:46.928Z,27.59
2023-05-14T11:26:13.702Z,30.21
2023-05-14T11:28:40.464Z,31.09
2023-05-14T11:31:07.154Z,31.77
2023-05-14T11:33:33.810Z,33.25
2023-05-14T11:36:00.408Z,32.04
2023-05-14T11:38:26.965Z,32.45
2023-05-14T11:41:13.982Z,33.51
2023-05-14T11:43:41.083Z,33.17
2023-05-14T11:46:07.697Z,31.87
2023-05-14T11:48:34.870Z,31.25
2023-05-14T11:51:01.400Z,31.56
2023-05-14T11:53:29.411Z,30.81
2023-05-14T11:55:57.901Z,29.22
2023-05-14T11:58:25.110Z,28.61
2023-05-14T12:00:51.914Z,28.78
2023-05-14T12:03:27.679Z,29.38
2023-05-14T12:05:58.405Z,30.42
2023-05-14T12:08:31.739Z,30.57
2023-05-14T12:10:59.157Z,30.72
2023-05-14T12:13:27.408Z,31.02
2023-05-14T12:15:55.481Z,30.92
2023-05-14T12:18:25.929Z,29.20
2023-05-14T12:20:52.827Z,29.13
2023-05-14T12:23:26.911Z,28.21
2023-05-14T12:25:53.542Z,26.86
2023-05-14T12:28:22.923Z,26.32
2023-05-14T12:30:56.590Z,25.28
2023-05-14T12:33:26.646Z,25.40
2023-05-14T12:36:10.019Z,25.83
2023-05-14T12:38:41.365Z,26.65
2023-05-14T12:41:07.948Z,26.37
2023-05-14T12:43:34.497Z,25.79
2023-05-14T12:46:01.078Z,24.63
2023-05-14T12:48:27.917Z,24.70
2023-05-14T12:50:54.592Z,24.26
2023-05-14T12:53:21.304Z,24.37
2023-05-14T12:55:50.982Z,24.25
2023-05-14T12:58:17.620Z,23.83
2023-05-14T13:00:44.304Z,23.57
2023-05-14T13:03:14.330Z,23.51
2023-05-14T13:05:40.988Z,23.32
2023-05-14T13:08:07.643Z,23.43
2023-05-14T13:10:34.244Z,23.23
2023-05-14T13:13:02.123Z,23.11
2023-05-14T13:15:35.997Z,23.18
2023-05-14T13:18:02.683Z,23.26
2023-05-14T13:20:31.052Z,23.21
2023-05-14T13:23:00.754Z,23.12
2023-05-14T13:25:27.744Z,23.15
2023-05-14T13:27:54.365Z,23.03
2023-05-14T13:30:21.068Z,23.22
2023-05-14T13:32:47.753Z,23.34
2023-05-14T13:35:14.490Z,22.92
2023-05-14T13:37:43.361Z,22.93
2023-05-14T13:40:10.391Z,23.33
2023-05-14T13:42:37.527Z,23.47
2023-05-14T13:45:04.243Z,23.23
2023-05-14T13:47:31.300Z,23.12
2023-05-14T13:49:58.324Z,23.40
2023-05-14T13:52:25.033Z,23.49
2023-05-14T13:54:51.590Z,23.33
2023-05-14T13:57:18.195Z,23.66
2023-05-14T13:59:46.071Z,23.82
2023-05-14T14:02:15.841Z,23.58
2023-05-14T14:04:42.475Z,23.71
2023-05-14T14:07:09.193Z,23.69
2023-05-14T14:09:36.957Z,23.74
2023-05-14T14:12:04.279Z,23.97
2023-05-14T14:14:31.187Z,23.67
2023-05-14T14:17:00.135Z,23.82
2023-05-14T14:19:27.223Z,24.03
2023-05-14T14:21:53.893Z,24.44
2023-05-14T14:24:20.587Z,24.42
2023-05-14T14:26:47.199Z,24.38
2023-05-14T14:29:13.757Z,24.21
2023-05-14T14:31:46.496Z,24.39
2023-05-14T14:34:13.095Z,24.30
2023-05-14T14:36:39.624Z,24.25
2023-05-14T14:39:06.241Z,23.99
2023-05-14T14:41:32.855Z,24.13
2023-05-14T14:44:03.086Z,24.19
2023-05-14T14:46:33.218Z,24.29
2023-05-14T14:49:00.243Z,23.71
2023-05-14T14:51:27.238Z,23.67
2023-05-14T14:53:53.928Z,24.37
2023-05-14T14:56:21.074Z,25.14
2023-05-14T14:58:47.729Z,25.28
2023-05-14T15:01:14.405Z,25.40
2023-05-14T15:03:41.191Z,25.62
2023-05-14T15:06:07.929Z,25.66
2023-05-14T15:08:37.830Z,25.49
2023-05-14T15:11:06.250Z,25.56
2023-05-14T15:13:32.778Z,25.95
2023-05-14T15:16:02.514Z,26.08
2023-05-14T15:18:29.080Z,26.28
2023-05-14T15:20:55.870Z,26.54
2023-05-14T15:23:22.490Z,26.51
2023-05-14T15:25:49.972Z,25.41
2023-05-14T15:28:16.722Z,25.39
2023-05-14T15:30:43.424Z,25.35
2023-05-14T15:33:10.453Z,24.97
2023-05-14T15:35:37.083Z,24.60
2023-05-14T15:38:03.646Z,24.98
2023-05-14T15:40:30.416Z,24.76
2023-05-14T15:42:56.997Z,24.67
2023-05-14T15:45:23.626Z,24.65
2023-05-14T15:47:50.198Z,24.66
2023-05-14T15:50:16.829Z,25.06
2023-05-14T15:52:43.464Z,24.84
2023-05-14T15:55:10.335Z,25.24
2023-05-14T15:57:39.903Z,25.42
2023-05-14T16:00:11.320Z,25.15
2023-05-14T16:02:39.218Z,24.80
2023-05-14T16:05:06.844Z,25.00
2023-05-14T16:07:33.550Z,25.35
2023-05-14T16:10:00.135Z,25.41
2023-05-14T16:12:26.766Z,25.42
2023-05-14T16:14:54.041Z,25.53
2023-05-14T16:17:20.868Z,25.65
2023-05-14T16:19:49.457Z,25.81
2023-05-14T16:22:16.250Z,25.60
2023-05-14T16:24:45.381Z,25.98
2023-05-14T16:27:12.069Z,25.48
2023-05-14T16:29:41.531Z,25.28
2023-05-14T16:32:08.193Z,25.14
2023-05-14T16:34:34.860Z,24.73
2023-05-14T16:37:01.605Z,24.67
2023-05-14T16:39:28.286Z,24.22
2023-05-14T16:41:54.925Z,24.78
2023-05-14T16:44:21.475Z,24.60
2023-05-14T16:46:48.537Z,24.69
2023-05-14T16:49:17.255Z,24.66
2023-05-14T16:51:44.016Z,24.83
2023-05-14T16:54:10.664Z,24.70
2023-05-14T16:56:38.070Z,24.36
2023-05-14T16:59:04.752Z,24.40
2023-05-14T17:01:31.880Z,24.51
2023-05-14T17:03:58.603Z,24.33
2023-05-14T17:06:25.276Z,24.32
2023-05-14T17:08:51.935Z,24.35
2023-05-14T17:11:18.523Z,24.39
2023-05-14T17:13:45.245Z,24.48
2023-05-14T17:16:13.991Z,24.42
2023-05-14T17:18:40.856Z,24.34
2023-05-14T17:21:07.716Z,24.25
2023-05-14T17:23:34.352Z,24.01
2023-05-14T17:26:00.934Z,23.78
2023-05-14T17:28:28.533Z,23.94
2023-05-14T17:30:55.353Z,23.54
2023-05-14T17:33:22.047Z,23.81
2023-05-14T17:35:51.009Z,23.36
2023-05-14T17:38:17.661Z,23.11
2023-05-14T17:40:44.276Z,23.02
2023-05-14T17:43:13.258Z,23.27
2023-05-14T17:45:53.105Z,23.28
2023-05-14T17:48:21.645Z,23.24
2023-05-14T17:50:48.250Z,23.21
2023-05-14T17:53:14.846Z,22.90
2023-05-14T17:55:50.951Z,22.79
2023-05-14T17:58:17.606Z,23.04
2023-05-14T18:00:44.267Z,22.77
2023-05-14T18:03:11.605Z,22.67
2023-05-14T18:05:38.537Z,22.70
2023-05-14T18:08:05.373Z,22.73
2023-05-14T18:10:31.942Z,22.46
2023-05-14T18:12:58.831Z,22.68
2023-05-14T18:15:27.321Z,22.38
2023-05-14T18:17:54.114Z,22.47
2023-05-14T18:20:20.736Z,22.33
2023-05-14T18:22:47.573Z,22.30
2023-05-14T18:25:14.207Z,22.39
2023-05-14T18:27:45.324Z,22.25
2023-05-14T18:30:13.292Z,22.16
2023-05-14T18:32:40.333Z,22.19
2023-05-14T18:35:08.203Z,22.02
2023-05-14T18:37:35.356Z,22.24
2023-05-14T18:40:05.156Z,22.05
2023-05-14T18:42:31.780Z,21.72
2023-05-14T18:44:58.403Z,21.86
2023-05-14T18:47:25.304Z,21.62
2023-05-14T18:49:55.241Z,21.56
2023-05-14T18:52:23.027Z,21.42
2023-05-14T18:54:50.701Z,21.16
2023-05-14T18:57:17.396Z,21.12
2023-05-14T18:59:43.963Z,20.87
2023-05-14T19:02:10.999Z,20.48
2023-05-14T19:04:50.706Z,20.31
2023-05-14T19:07:32.281Z,20.21
2023-05-14T19:10:01.700Z,20.22
2023-05-14T19:12:28.360Z,20.13
2023-05-14T19:14:55.773Z,20.24
2023-05-14T19:17:25.546Z,20.37
2023-05-14T19:19:52.186Z,20.06
2023-05-14T19:22:21.996Z,19.45
2023-05-14T19:27:21.064Z,19.17
2023-05-14T19:29:47.657Z,19.22
2023-05-14T19:32:14.306Z,18.74
2023-05-14T19:34:41.064Z,18.72
2023-05-14T19:37:07.870Z,18.83
2023-05-14T19:39:34.457Z,18.90
2023-05-14T19:42:04.104Z,19.58
2023-05-14T19:44:31.113Z,19.75
2023-05-14T19:46:57.935Z,19.55
2023-05-14T19:49:24.521Z,19.66
2023-05-14T19:51:51.103Z,19.58
2023-05-14T19:54:20.680Z,19.81
2023-05-14T19:56:48.193Z,19.70
2023-05-14T19:59:17.110Z,19.81
2023-05-14T20:01:45.998Z,19.88
2023-05-14T20:04:13.985Z,19.87
2023-05-14T20:06:41.657Z,19.71
2023-05-14T20:09:08.223Z,19.68
2023-05-14T20:11:34.819Z,19.35
2023-05-14T20:14:01.314Z,19.01
2023-05-14T20:16:28.590Z,18.95
2023-05-14T20:18:58.139Z,18.77
2023-05-14T20:21:24.800Z,18.63
2023-05-14T20:23:51.900Z,18.56
2023-05-14T20:26:18.492Z,18.71
2023-05-14T20:28:45.113Z,18.69
2023-05-14T20:31:11.752Z,18.55
2023-05-14T20:33:38.355Z,18.37
2023-05-14T20:36:05.362Z,18.56
2023-05-14T20:38:35.122Z,18.42
2023-05-14T20:41:01.907Z,18.30
2023-05-14T20:43:31.507Z,18.00
2023-05-14T20:46:06.305Z,17.87
2023-05-14T20:48:32.990Z,17.97
2023-05-14T20:50:59.622Z,17.88
2023-05-14T20:53:28.761Z,17.23
2023-05-14T20:55:55.962Z,17.37
2023-05-14T20:58:22.630Z,17.52
2023-05-14T21:00:49.250Z,17.34
2023-05-14T21:03:15.959Z,17.60
2023-05-14T21:05:43.787Z,17.69
2023-05-14T21:08:10.895Z,17.91
2023-05-14T21:10:37.465Z,18.06
2023-05-14T21:13:15.521Z,18.09
2023-05-14T21:15:42.461Z,18.02
2023-05-14T21:18:16.473Z,18.22
2023-05-14T21:20:43.043Z,18.13
2023-05-14T21:23:09.603Z,17.55
2023-05-14T21:25:36.364Z,17.35
2023-05-14T21:28:02.952Z,17.21
2023-05-14T21:30:29.750Z,17.28
2023-05-14T21:32:56.449Z,17.33
2023-05-14T21:35:23.472Z,17.29
2023-05-14T21:37:50.288Z,17.15
2023-05-14T21:40:16.867Z,17.17
2023-05-14T21:42:43.565Z,17.47
2023-05-14T21:45:10.482Z,17.30
2023-05-14T21:47:37.201Z,17.10
2023-05-14T21:50:07.052Z,17.08
2023-05-14T21:52:33.663Z,17.21
2023-05-14T21:55:00.211Z,17.04
2023-05-14T21:57:28.373Z,17.06
2023-05-14T21:59:55.451Z,17.30
2023-05-14T22:04:48.639Z,16.83
2023-05-14T22:07:15.282Z,17.11
2023-05-14T22:09:41.841Z,17.10
2023-05-14T22:12:08.548Z,16.96
2023-05-14T22:14:35.103Z,16.72
2023-05-14T22:17:01.772Z,16.76
2023-05-14T22:19:28.547Z,16.72
2023-05-14T22:21:55.161Z,16.65
2023-05-14T22:24:21.676Z,16.16
2023-05-14T22:26:53.407Z,16.08
2023-05-14T22:29:20.114Z,16.29
2023-05-14T22:31:46.759Z,16.19
2023-05-14T22:34:16.029Z,16.76
2023-05-14T22:36:42.633Z,16.62
2023-05-14T22:39:11.196Z,16.33
2023-05-14T22:41:38.662Z,15.74
2023-05-14T22:44:07.488Z,15.92
2023-05-14T22:46:34.089Z,16.31
2023-05-14T22:49:06.310Z,16.14
2023-05-14T22:51:33.114Z,15.89
2023-05-14T22:53:59.633Z,16.00
2023-05-14T22:56:26.242Z,16.22
2023-05-14T22:58:52.754Z,16.03
2023-05-14T23:01:19.381Z,15.57
2023-05-14T23:03:45.995Z,15.44
2023-05-14T23:06:14.485Z,15.42
2023-05-14T23:08:41.016Z,15.56
2023-05-14T23:11:07.709Z,15.89
2023-05-14T23:13:41.592Z,16.03
2023-05-14T23:16:08.392Z,15.89
2023-05-14T23:18:35.095Z,15.66
2023-05-14T23:21:01.965Z,15.24
2023-05-14T23:23:28.546Z,15.30
2023-05-14T23:25:56.133Z,15.81
2023-05-14T23:28:22.719Z,15.82
2023-05-14T23:30:49.425Z,15.44
2023-05-14T23:33:15.943Z,15.39
2023-05-14T23:35:42.524Z,14.41
2023-05-14T23:38:09.152Z,14.37
2023-05-14T23:40:35.877Z,14.01
2023-05-14T23:43:02.514Z,13.68
2023-05-14T23:45:29.456Z,13.98
2023-05-14T23:47:58.478Z,14.08
2023-05-14T23:50:25.658Z,14.26
2023-05-14T23:52:52.751Z,14.44
2023-05-14T23:55:19.492Z,14.06
2023-05-14T23:57:46.080Z,14.42
